createdAt,value
2022-10-17T00:00:04.623Z,1.30
2022-10-17T00:00:16.323Z,1.10
2022-10-17T00:00:27.055Z,1.30
2022-10-17T00:00:37.799Z,1.30
2022-10-17T00:00:48.563Z,1.50
2022-10-17T00:00:59.350Z,1.50
2022-10-17T00:01:10.208Z,1.30
2022-10-17T00:01:23.484Z,1.20
2022-10-17T00:01:36.263Z,1.30
2022-10-17T00:01:47.122Z,1.50
2022-10-17T00:01:57.864Z,1.50
2022-10-17T00:02:10.344Z,1.40
2022-10-17T00:02:21.095Z,1.40
2022-10-17T00:02:31.847Z,1.40
2022-10-17T00:02:42.663Z,1.40
2022-10-17T00:02:54.915Z,1.50
2022-10-17T00:03:07.895Z,1.40
2022-10-17T00:03:22.615Z,1.50
2022-10-17T00:03:33.344Z,1.30
2022-10-17T00:03:44.085Z,1.20
2022-10-17T00:03:54.814Z,1.20
2022-10-17T00:04:05.537Z,1.30
2022-10-17T00:04:16.288Z,1.60
2022-10-17T00:04:27.084Z,1.70
2022-10-17T00:04:37.828Z,1.60
2022-10-17T00:04:48.622Z,1.60
2022-10-17T00:05:01.063Z,1.50
2022-10-17T00:05:11.846Z,1.50
2022-10-17T00:05:22.624Z,1.30
2022-10-17T00:05:33.415Z,1.30
2022-10-17T00:05:44.175Z,1.30
2022-10-17T00:05:54.947Z,1.30
2022-10-17T00:06:07.683Z,1.40
2022-10-17T00:06:18.463Z,1.50
2022-10-17T00:06:29.216Z,1.40
2022-10-17T00:06:39.995Z,1.40
2022-10-17T00:06:50.727Z,1.30
2022-10-17T00:07:01.507Z,1.50
2022-10-17T00:07:12.339Z,1.60
2022-10-17T00:07:23.078Z,1.50
2022-10-17T00:07:33.815Z,1.70
2022-10-17T00:07:44.597Z,1.70
2022-10-17T00:07:55.366Z,1.70
2022-10-17T00:08:07.106Z,1.50
2022-10-17T00:08:17.876Z,1.50
2022-10-17T00:08:29.646Z,1.60
2022-10-17T00:08:40.438Z,1.40
2022-10-17T00:08:51.188Z,1.30
2022-10-17T00:09:03.676Z,1.20
2022-10-17T00:09:15.637Z,1.30
2022-10-17T00:09:26.377Z,1.30
2022-10-17T00:09:38.791Z,1.50
2022-10-17T00:09:49.535Z,1.50
2022-10-17T00:10:00.277Z,1.40
2022-10-17T00:10:12.776Z,1.20
2022-10-17T00:10:23.548Z,1.30
2022-10-17T00:10:34.359Z,1.60
2022-10-17T00:10:45.136Z,1.60
2022-10-17T00:10:55.891Z,1.40
2022-10-17T00:11:08.328Z,1.40
2022-10-17T00:11:19.057Z,1.30
2022-10-17T00:11:31.498Z,1.30
2022-10-17T00:11:42.232Z,1.50
2022-10-17T00:11:52.967Z,1.60
2022-10-17T00:12:03.698Z,1.50
2022-10-17T00:12:15.938Z,1.20
2022-10-17T00:12:28.393Z,1.20
2022-10-17T00:12:40.844Z,1.20
2022-10-17T00:12:52.802Z,1.30
2022-10-17T00:13:04.539Z,1.30
2022-10-17T00:13:16.297Z,1.30
2022-10-17T00:13:29.285Z,1.30
2022-10-17T00:13:42.018Z,1.30
2022-10-17T00:13:52.769Z,1.50
2022-10-17T00:14:03.539Z,1.70
2022-10-17T00:14:15.288Z,1.60
2022-10-17T00:14:26.054Z,1.40
2022-10-17T00:14:36.788Z,1.20
2022-10-17T00:14:47.532Z,1.50
2022-10-17T00:14:58.279Z,1.70
2022-10-17T00:15:09.011Z,1.60
2022-10-17T00:15:19.765Z,1.50
2022-10-17T00:15:30.489Z,1.40
2022-10-17T00:15:41.233Z,1.50
2022-10-17T00:15:51.969Z,1.50
2022-10-17T00:16:02.748Z,1.50
2022-10-17T00:16:14.479Z,1.50
2022-10-17T00:16:26.760Z,1.50
2022-10-17T00:16:39.200Z,1.60
2022-10-17T00:16:49.921Z,1.50
2022-10-17T00:17:00.760Z,1.60
2022-10-17T00:17:11.510Z,1.60
2022-10-17T00:17:22.247Z,1.40
2022-10-17T00:17:32.970Z,1.40
2022-10-17T00:17:43.700Z,1.50
2022-10-17T00:17:54.432Z,1.40
2022-10-17T00:18:05.174Z,1.50
2022-10-17T00:18:15.944Z,1.60
2022-10-17T00:18:26.744Z,1.60
2022-10-17T00:18:37.535Z,1.50
2022-10-17T00:18:49.992Z,1.50
2022-10-17T00:19:00.761Z,1.60
2022-10-17T00:19:12.451Z,1.50
2022-10-17T00:19:25.568Z,1.50
2022-10-17T00:19:38.316Z,1.40
2022-10-17T00:19:49.041Z,1.70
2022-10-17T00:19:59.791Z,1.90
2022-10-17T00:20:10.524Z,1.90
2022-10-17T00:20:21.265Z,1.40
2022-10-17T00:20:33.485Z,1.40
2022-10-17T00:20:44.243Z,1.50
2022-10-17T00:20:56.953Z,1.50
2022-10-17T00:21:07.692Z,1.80
2022-10-17T00:21:18.435Z,1.80
2022-10-17T00:21:30.134Z,1.60
2022-10-17T00:21:40.853Z,1.50
2022-10-17T00:21:51.624Z,1.40
2022-10-17T00:22:02.371Z,1.80
2022-10-17T00:22:13.103Z,1.80
2022-10-17T00:22:23.863Z,1.60
2022-10-17T00:22:48.677Z,1.60
2022-10-17T00:23:01.158Z,1.50
2022-10-17T00:23:11.884Z,1.40
2022-10-17T00:23:23.612Z,1.50
2022-10-17T00:23:35.835Z,1.60
2022-10-17T00:23:49.059Z,1.60
2022-10-17T00:24:01.489Z,1.60
2022-10-17T00:24:12.267Z,1.40
2022-10-17T00:24:22.994Z,1.40
2022-10-17T00:24:33.773Z,1.40
2022-10-17T00:24:44.502Z,1.40
2022-10-17T00:24:55.224Z,1.40
2022-10-17T00:25:05.996Z,1.60
2022-10-17T00:25:16.733Z,1.60
2022-10-17T00:25:27.496Z,1.70
2022-10-17T00:25:38.235Z,1.50
2022-10-17T00:25:48.977Z,1.70
2022-10-17T00:25:59.722Z,1.70
2022-10-17T00:26:10.446Z,1.90
2022-10-17T00:26:21.188Z,1.90
2022-10-17T00:26:31.915Z,1.60
2022-10-17T00:26:46.090Z,1.70
2022-10-17T00:27:00.244Z,1.70
2022-10-17T00:27:10.977Z,1.60
2022-10-17T00:27:23.427Z,1.50
2022-10-17T00:27:34.168Z,1.50
2022-10-17T00:27:44.896Z,1.60
2022-10-17T00:27:55.627Z,1.70
2022-10-17T00:28:06.357Z,1.90
2022-10-17T00:28:17.236Z,1.80
2022-10-17T00:28:28.972Z,1.90
2022-10-17T00:28:41.554Z,2.00
2022-10-17T00:28:53.376Z,1.90
2022-10-17T00:29:05.230Z,1.80
2022-10-17T00:29:19.900Z,1.90
2022-10-17T00:29:30.627Z,1.80
2022-10-17T00:29:41.368Z,1.90
2022-10-17T00:29:55.093Z,1.90
2022-10-17T00:30:05.833Z,1.60
2022-10-17T00:30:17.518Z,1.60
2022-10-17T00:30:28.274Z,1.70
2022-10-17T00:30:38.988Z,1.70
2022-10-17T00:30:51.429Z,1.80
2022-10-17T00:31:04.670Z,1.80
2022-10-17T00:31:16.920Z,1.70
2022-10-17T00:31:27.639Z,1.70
2022-10-17T00:31:38.369Z,1.70
2022-10-17T00:31:49.124Z,1.70
2022-10-17T00:31:59.863Z,1.80
2022-10-17T00:32:12.315Z,2.00
2022-10-17T00:32:23.030Z,2.30
2022-10-17T00:32:33.759Z,2.30
2022-10-17T00:32:44.491Z,2.30
2022-10-17T00:32:56.198Z,2.10
2022-10-17T00:33:08.650Z,2.20
2022-10-17T00:33:21.090Z,2.00
2022-10-17T00:33:31.829Z,2.00
2022-10-17T00:33:43.563Z,1.80
2022-10-17T00:33:56.519Z,1.70
2022-10-17T00:34:09.009Z,1.70
2022-10-17T00:34:20.721Z,1.70
2022-10-17T00:34:31.481Z,1.70
2022-10-17T00:34:42.214Z,1.60
2022-10-17T00:34:52.996Z,1.80
2022-10-17T00:35:03.719Z,2.00
2022-10-17T00:35:14.452Z,2.00
2022-10-17T00:35:27.174Z,1.90
2022-10-17T00:35:37.904Z,1.90
2022-10-17T00:35:51.100Z,1.90
2022-10-17T00:36:01.841Z,1.70
2022-10-17T00:36:14.290Z,1.80
2022-10-17T00:36:25.020Z,2.00
2022-10-17T00:36:35.754Z,2.00
2022-10-17T00:36:47.442Z,1.80
2022-10-17T00:37:00.665Z,1.80
2022-10-17T00:37:13.376Z,1.60
2022-10-17T00:37:24.130Z,1.70
2022-10-17T00:37:35.824Z,1.70
2022-10-17T00:37:46.572Z,1.60
2022-10-17T00:37:57.291Z,1.80
2022-10-17T00:38:08.041Z,1.90
2022-10-17T00:38:18.791Z,2.00
2022-10-17T00:38:29.513Z,1.80
2022-10-17T00:38:40.243Z,1.80
2022-10-17T00:38:51.961Z,1.90
2022-10-17T00:39:03.664Z,1.90
2022-10-17T00:39:16.101Z,1.90
2022-10-17T00:39:29.823Z,1.80
2022-10-17T00:39:40.579Z,1.80
2022-10-17T00:39:51.304Z,1.90
2022-10-17T00:40:03.010Z,1.90
2022-10-17T00:40:16.722Z,1.90
2022-10-17T00:40:27.451Z,1.80
2022-10-17T00:40:39.885Z,1.90
2022-10-17T00:40:50.647Z,2.20
2022-10-17T00:41:01.372Z,2.20
2022-10-17T00:41:13.868Z,2.40
2022-10-17T00:41:24.613Z,2.20
2022-10-17T00:41:36.798Z,2.00
2022-10-17T00:41:47.541Z,2.00
2022-10-17T00:41:58.283Z,1.90
2022-10-17T00:42:09.035Z,1.80
2022-10-17T00:42:19.747Z,1.70
2022-10-17T00:42:31.637Z,1.70
2022-10-17T00:42:42.374Z,1.70
2022-10-17T00:42:53.109Z,1.80
2022-10-17T00:43:03.834Z,1.70
2022-10-17T00:43:16.262Z,1.70
2022-10-17T00:43:28.713Z,2.00
2022-10-17T00:43:40.914Z,2.00
2022-10-17T00:43:51.644Z,2.00
2022-10-17T00:44:03.858Z,2.00
2022-10-17T00:44:16.064Z,2.00
2022-10-17T00:44:28.525Z,1.90
2022-10-17T00:44:41.235Z,2.00
2022-10-17T00:44:54.444Z,2.10
2022-10-17T00:45:05.205Z,2.00
2022-10-17T00:45:15.912Z,1.80
2022-10-17T00:45:26.634Z,1.70
2022-10-17T00:45:37.376Z,1.50
2022-10-17T00:45:48.115Z,1.60
2022-10-17T00:45:58.843Z,1.70
2022-10-17T00:46:11.046Z,1.80
2022-10-17T00:46:21.767Z,1.70
2022-10-17T00:46:32.531Z,1.90
2022-10-17T00:46:43.257Z,1.90
2022-10-17T00:46:53.986Z,1.90
2022-10-17T00:47:04.715Z,1.80
2022-10-17T00:47:18.147Z,1.90
2022-10-17T00:47:31.921Z,1.70
2022-10-17T00:47:45.142Z,1.80
2022-10-17T00:47:56.826Z,1.80
2022-10-17T00:48:09.286Z,1.80
2022-10-17T00:48:22.613Z,2.00
2022-10-17T00:48:34.067Z,2.20
2022-10-17T00:48:44.813Z,2.00
2022-10-17T00:48:55.550Z,1.90
2022-10-17T00:49:06.285Z,1.80
2022-10-17T00:49:18.699Z,2.00
2022-10-17T00:49:29.452Z,2.10
2022-10-17T00:49:42.664Z,2.10
2022-10-17T00:49:55.925Z,2.10
2022-10-17T00:50:06.711Z,2.00
2022-10-17T00:50:17.460Z,1.90
2022-10-17T00:50:30.656Z,2.10
2022-10-17T00:50:43.108Z,2.20
2022-10-17T00:50:53.834Z,2.10
2022-10-17T00:51:04.606Z,2.00
2022-10-17T00:51:15.336Z,2.00
2022-10-17T00:51:26.077Z,2.20
2022-10-17T00:51:36.845Z,2.30
2022-10-17T00:51:47.606Z,2.20
2022-10-17T00:52:00.090Z,2.00
2022-10-17T00:52:10.809Z,2.20
2022-10-17T00:52:21.539Z,2.20
2022-10-17T00:52:32.276Z,2.20
2022-10-17T00:52:43.021Z,2.10
2022-10-17T00:52:55.436Z,2.00
2022-10-17T00:53:06.166Z,1.90
2022-10-17T00:53:16.920Z,1.70
2022-10-17T00:53:27.658Z,1.80
2022-10-17T00:53:39.907Z,2.00
2022-10-17T00:53:52.880Z,2.10
2022-10-17T00:54:06.088Z,1.90
2022-10-17T00:54:17.847Z,2.20
2022-10-17T00:54:28.630Z,2.10
2022-10-17T00:54:39.411Z,2.00
2022-10-17T00:54:52.149Z,2.10
2022-10-17T00:55:03.847Z,2.10
2022-10-17T00:55:14.587Z,1.90
2022-10-17T00:55:25.319Z,1.70
2022-10-17T00:55:36.070Z,2.00
2022-10-17T00:55:46.798Z,2.00
2022-10-17T00:55:57.529Z,2.10
2022-10-17T00:56:09.263Z,2.00
2022-10-17T00:56:19.988Z,2.00
2022-10-17T00:56:32.422Z,2.10
2022-10-17T00:56:45.027Z,1.90
2022-10-17T00:56:57.209Z,1.90
2022-10-17T00:57:07.938Z,1.90
2022-10-17T00:57:18.703Z,2.00
2022-10-17T00:57:29.432Z,2.30
2022-10-17T00:57:44.661Z,2.30
2022-10-17T00:57:55.405Z,1.90
2022-10-17T00:58:06.171Z,2.00
2022-10-17T00:58:17.891Z,2.10
2022-10-17T00:58:30.340Z,2.20
2022-10-17T00:58:42.069Z,2.10
2022-10-17T00:58:52.862Z,2.20
2022-10-17T00:59:15.202Z,2.30
2022-10-17T00:59:25.930Z,2.20
2022-10-17T00:59:37.652Z,2.30
2022-10-17T00:59:48.430Z,2.00
2022-10-17T01:00:01.644Z,2.00
2022-10-17T01:00:14.880Z,2.00
2022-10-17T01:00:25.640Z,2.20
2022-10-17T01:00:37.370Z,2.00
2022-10-17T01:00:50.311Z,2.10
2022-10-17T01:01:02.824Z,2.00
2022-10-17T01:01:13.629Z,2.10
2022-10-17T01:01:24.442Z,1.90
2022-10-17T01:01:35.180Z,1.80
2022-10-17T01:01:45.922Z,1.70
2022-10-17T01:01:58.041Z,1.90
2022-10-17T01:02:08.826Z,1.90
2022-10-17T01:02:19.561Z,2.20
2022-10-17T01:02:30.417Z,2.00
2022-10-17T01:02:41.419Z,1.80
2022-10-17T01:02:52.141Z,1.80
2022-10-17T01:03:02.871Z,1.80
2022-10-17T01:03:13.607Z,2.00
2022-10-17T01:03:24.330Z,1.90
2022-10-17T01:03:35.051Z,2.00
2022-10-17T01:03:45.803Z,2.00
2022-10-17T01:03:56.536Z,2.00
2022-10-17T01:04:07.276Z,1.80
2022-10-17T01:04:18.024Z,1.80
2022-10-17T01:04:28.752Z,1.80
2022-10-17T01:04:39.472Z,1.80
2022-10-17T01:04:50.212Z,1.70
2022-10-17T01:05:00.948Z,1.80
2022-10-17T01:05:11.708Z,1.90
2022-10-17T01:05:22.433Z,2.00
2022-10-17T01:05:33.160Z,2.00
2022-10-17T01:05:43.882Z,1.90
2022-10-17T01:05:54.603Z,1.80
2022-10-17T01:06:05.343Z,1.70
2022-10-17T01:06:16.063Z,1.80
2022-10-17T01:06:26.784Z,1.70
2022-10-17T01:06:37.558Z,1.80
2022-10-17T01:06:48.324Z,1.90
2022-10-17T01:07:00.025Z,2.00
2022-10-17T01:07:11.833Z,2.00
2022-10-17T01:07:23.573Z,1.70
2022-10-17T01:07:37.136Z,1.70
2022-10-17T01:07:48.134Z,1.80
2022-10-17T01:08:00.825Z,1.80
2022-10-17T01:08:12.609Z,1.90
2022-10-17T01:08:24.804Z,1.90
2022-10-17T01:08:35.596Z,2.00
2022-10-17T01:08:47.582Z,1.90
2022-10-17T01:08:59.255Z,1.90
2022-10-17T01:09:11.686Z,1.90
2022-10-17T01:09:22.428Z,2.10
2022-10-17T01:09:33.184Z,2.10
2022-10-17T01:09:43.943Z,2.10
2022-10-17T01:09:54.666Z,2.00
2022-10-17T01:10:06.380Z,2.10
2022-10-17T01:10:18.117Z,1.90
2022-10-17T01:10:28.888Z,1.90
2022-10-17T01:10:42.074Z,2.10
2022-10-17T01:10:52.826Z,2.00
2022-10-17T01:11:06.036Z,2.10
2022-10-17T01:11:19.748Z,1.80
2022-10-17T01:11:30.510Z,1.70
2022-10-17T01:11:41.243Z,1.60
2022-10-17T01:11:52.008Z,1.80
2022-10-17T01:12:02.746Z,1.90
2022-10-17T01:12:13.533Z,2.10
2022-10-17T01:12:24.299Z,2.00
2022-10-17T01:12:35.042Z,2.20
2022-10-17T01:12:47.470Z,2.30
2022-10-17T01:12:58.197Z,2.10
2022-10-17T01:13:08.936Z,1.90
2022-10-17T01:13:19.668Z,1.70
2022-10-17T01:13:30.395Z,1.70
2022-10-17T01:13:41.135Z,2.00
2022-10-17T01:13:51.876Z,2.00
2022-10-17T01:14:02.634Z,2.10
2022-10-17T01:14:13.356Z,1.90
2022-10-17T01:14:24.086Z,1.90
2022-10-17T01:14:35.769Z,1.90
2022-10-17T01:14:46.521Z,1.90
2022-10-17T01:14:57.264Z,1.80
2022-10-17T01:15:07.997Z,2.00
2022-10-17T01:15:18.726Z,2.00
2022-10-17T01:15:29.459Z,2.00
2022-10-17T01:15:40.197Z,1.70
2022-10-17T01:15:50.935Z,1.80
2022-10-17T01:16:03.374Z,1.70
2022-10-17T01:16:14.096Z,1.60
2022-10-17T01:16:24.826Z,1.70
2022-10-17T01:16:35.559Z,1.80
2022-10-17T01:16:46.296Z,1.80
2022-10-17T01:16:57.020Z,1.80
2022-10-17T01:17:07.766Z,1.90
2022-10-17T01:17:18.495Z,1.90
2022-10-17T01:17:31.353Z,1.70
2022-10-17T01:17:44.290Z,1.70
2022-10-17T01:17:55.027Z,1.50
2022-10-17T01:18:05.761Z,1.50
2022-10-17T01:18:16.490Z,1.60
2022-10-17T01:18:28.707Z,1.90
2022-10-17T01:18:41.027Z,2.10
2022-10-17T01:18:53.750Z,1.90
2022-10-17T01:19:06.185Z,1.70
2022-10-17T01:19:18.457Z,1.70
2022-10-17T01:19:30.854Z,1.60
2022-10-17T01:19:41.588Z,1.60
2022-10-17T01:19:52.320Z,1.60
2022-10-17T01:20:03.069Z,1.80
2022-10-17T01:20:13.799Z,1.80
2022-10-17T01:20:26.000Z,1.80
2022-10-17T01:20:37.741Z,1.80
2022-10-17T01:20:48.500Z,1.80
2022-10-17T01:21:00.968Z,1.90
2022-10-17T01:21:11.729Z,1.80
2022-10-17T01:21:22.473Z,1.60
2022-10-17T01:21:33.221Z,1.60
2022-10-17T01:21:45.737Z,1.70
2022-10-17T01:21:56.488Z,2.10
2022-10-17T01:22:08.170Z,2.20
2022-10-17T01:22:18.901Z,2.00
2022-10-17T01:22:29.966Z,2.00
2022-10-17T01:22:42.568Z,1.80
2022-10-17T01:22:53.299Z,1.70
2022-10-17T01:23:04.268Z,1.90
2022-10-17T01:23:15.998Z,1.60
2022-10-17T01:23:26.720Z,1.80
2022-10-17T01:23:37.460Z,1.80
2022-10-17T01:23:48.190Z,1.80
2022-10-17T01:23:58.918Z,1.80
2022-10-17T01:24:09.649Z,1.90
2022-10-17T01:24:20.383Z,1.90
2022-10-17T01:24:31.111Z,1.80
2022-10-17T01:24:41.842Z,1.90
2022-10-17T01:24:52.572Z,1.70
2022-10-17T01:25:03.332Z,1.50
2022-10-17T01:25:16.040Z,1.70
2022-10-17T01:25:26.771Z,1.90
2022-10-17T01:25:37.509Z,1.90
2022-10-17T01:25:48.242Z,1.70
2022-10-17T01:25:58.990Z,1.80
2022-10-17T01:26:09.724Z,2.10
2022-10-17T01:26:20.450Z,2.00
2022-10-17T01:26:31.182Z,1.90
2022-10-17T01:26:41.931Z,1.90
2022-10-17T01:26:53.872Z,2.00
2022-10-17T01:27:04.611Z,1.90
2022-10-17T01:27:15.336Z,1.80
2022-10-17T01:27:26.064Z,2.00
2022-10-17T01:27:36.789Z,1.90
2022-10-17T01:27:52.011Z,2.20
2022-10-17T01:28:03.725Z,1.90
2022-10-17T01:28:14.463Z,1.90
2022-10-17T01:28:25.266Z,1.70
2022-10-17T01:28:37.124Z,1.70
2022-10-17T01:28:49.616Z,1.70
2022-10-17T01:29:01.866Z,1.80
2022-10-17T01:29:14.832Z,2.10
2022-10-17T01:29:27.053Z,2.20
2022-10-17T01:29:38.765Z,2.20
2022-10-17T01:29:49.526Z,1.90
2022-10-17T01:30:00.264Z,1.90
2022-10-17T01:30:11.001Z,1.80
2022-10-17T01:30:21.732Z,2.00
2022-10-17T01:30:33.453Z,1.90
2022-10-17T01:30:45.899Z,1.90
2022-10-17T01:30:56.646Z,1.80
2022-10-17T01:31:08.372Z,1.90
2022-10-17T01:31:20.876Z,1.80
2022-10-17T01:31:31.604Z,1.60
2022-10-17T01:31:44.043Z,1.40
2022-10-17T01:31:56.483Z,1.60
2022-10-17T01:32:08.715Z,1.80
2022-10-17T01:32:19.495Z,2.10
2022-10-17T01:32:31.944Z,2.10
2022-10-17T01:32:42.684Z,1.70
2022-10-17T01:32:53.405Z,2.00
2022-10-17T01:33:05.128Z,2.10
2022-10-17T01:33:15.854Z,2.40
2022-10-17T01:33:26.584Z,2.20
2022-10-17T01:33:37.303Z,2.40
2022-10-17T01:33:48.050Z,1.80
2022-10-17T01:33:58.783Z,1.80
2022-10-17T01:34:09.519Z,1.60
2022-10-17T01:34:20.235Z,1.70
2022-10-17T01:34:31.838Z,1.50
2022-10-17T01:34:42.642Z,1.80
2022-10-17T01:34:54.332Z,1.80
2022-10-17T01:35:05.067Z,1.80
2022-10-17T01:35:15.823Z,1.80
2022-10-17T01:35:26.553Z,1.80
2022-10-17T01:35:37.314Z,1.90
2022-10-17T01:35:48.034Z,1.70
2022-10-17T01:36:03.176Z,1.80
2022-10-17T01:36:15.346Z,1.80
2022-10-17T01:36:26.081Z,1.90
2022-10-17T01:36:36.805Z,1.80
2022-10-17T01:36:47.545Z,1.80
2022-10-17T01:36:58.293Z,1.60
2022-10-17T01:37:09.016Z,1.60
2022-10-17T01:37:19.755Z,1.50
2022-10-17T01:37:30.505Z,1.60
2022-10-17T01:37:41.283Z,1.80
2022-10-17T01:38:05.161Z,1.80
2022-10-17T01:38:17.365Z,1.80
2022-10-17T01:38:30.577Z,1.90
2022-10-17T01:38:41.315Z,1.80
2022-10-17T01:38:52.105Z,1.80
2022-10-17T01:39:04.306Z,1.90
2022-10-17T01:39:16.538Z,1.70
2022-10-17T01:39:30.132Z,1.70
2022-10-17T01:39:43.982Z,1.60
2022-10-17T01:39:56.237Z,1.70
2022-10-17T01:40:06.976Z,1.90
2022-10-17T01:40:17.704Z,1.90
2022-10-17T01:40:30.397Z,1.80
2022-10-17T01:40:41.138Z,1.70
2022-10-17T01:40:51.860Z,1.80
2022-10-17T01:41:04.811Z,1.90
2022-10-17T01:41:18.032Z,2.00
2022-10-17T01:41:29.739Z,1.80
2022-10-17T01:41:42.216Z,1.50
2022-10-17T01:41:52.970Z,1.60
2022-10-17T01:42:05.167Z,1.60
2022-10-17T01:42:15.915Z,1.80
2022-10-17T01:42:28.651Z,1.90
2022-10-17T01:42:39.569Z,1.90
2022-10-17T01:42:52.011Z,1.90
2022-10-17T01:43:02.749Z,1.70
2022-10-17T01:43:13.481Z,1.70
2022-10-17T01:43:26.411Z,1.60
2022-10-17T01:43:37.137Z,1.50
2022-10-17T01:43:47.913Z,1.60
2022-10-17T01:43:58.659Z,1.70
2022-10-17T01:44:09.410Z,1.90
2022-10-17T01:44:20.137Z,1.80
2022-10-17T01:44:30.881Z,1.70
2022-10-17T01:44:41.624Z,1.60
2022-10-17T01:44:53.366Z,1.40
2022-10-17T01:45:05.800Z,1.80
2022-10-17T01:45:18.103Z,1.80
2022-10-17T01:45:28.811Z,1.70
2022-10-17T01:45:41.234Z,1.80
2022-10-17T01:45:51.951Z,1.80
2022-10-17T01:46:02.694Z,2.00
2022-10-17T01:46:14.389Z,2.10
2022-10-17T01:46:26.609Z,2.20
2022-10-17T01:46:38.836Z,1.90
2022-10-17T01:46:49.588Z,2.00
2022-10-17T01:47:00.329Z,1.90
2022-10-17T01:47:11.073Z,1.80
2022-10-17T01:47:21.841Z,1.70
2022-10-17T01:47:34.315Z,1.70
2022-10-17T01:47:45.060Z,1.70
2022-10-17T01:47:55.791Z,1.40
2022-10-17T01:48:06.521Z,1.50
2022-10-17T01:48:17.300Z,1.50
2022-10-17T01:48:32.060Z,1.70
2022-10-17T01:48:45.299Z,1.80
2022-10-17T01:48:58.243Z,1.70
2022-10-17T01:49:08.980Z,1.60
2022-10-17T01:49:19.711Z,1.90
2022-10-17T01:49:30.453Z,2.10
2022-10-17T01:49:42.242Z,2.10
2022-10-17T01:49:55.470Z,1.80
2022-10-17T01:50:06.180Z,1.50
2022-10-17T01:50:16.949Z,1.70
2022-10-17T01:50:27.661Z,1.90
2022-10-17T01:50:38.424Z,2.00
2022-10-17T01:50:49.163Z,1.90
2022-10-17T01:50:59.930Z,1.90
2022-10-17T01:51:10.651Z,1.70
2022-10-17T01:51:23.113Z,1.80
2022-10-17T01:51:35.560Z,1.80
2022-10-17T01:51:46.290Z,1.80
2022-10-17T01:51:58.732Z,1.90
2022-10-17T01:52:09.482Z,1.80
2022-10-17T01:52:21.188Z,1.90
2022-10-17T01:52:31.932Z,1.90
2022-10-17T01:52:44.392Z,1.70
2022-10-17T01:52:56.843Z,1.70
2022-10-17T01:53:07.595Z,1.60
2022-10-17T01:53:18.321Z,1.60
2022-10-17T01:53:29.091Z,1.60
2022-10-17T01:53:40.813Z,1.80
2022-10-17T01:53:51.562Z,2.10
2022-10-17T01:54:03.264Z,1.90
2022-10-17T01:54:13.981Z,1.70
2022-10-17T01:54:24.713Z,1.70
2022-10-17T01:54:36.922Z,1.70
2022-10-17T01:54:47.662Z,1.50
2022-10-17T01:54:58.416Z,1.50
2022-10-17T01:55:09.150Z,1.70
2022-10-17T01:55:19.904Z,1.80
2022-10-17T01:55:32.326Z,1.80
2022-10-17T01:55:43.091Z,2.00
2022-10-17T01:55:53.909Z,1.90
2022-10-17T01:56:04.655Z,1.90
2022-10-17T01:56:16.335Z,1.70
2022-10-17T01:56:27.084Z,1.60
2022-10-17T01:56:37.844Z,1.60
2022-10-17T01:56:48.597Z,1.60
2022-10-17T01:56:59.334Z,1.20
2022-10-17T01:57:10.062Z,1.30
2022-10-17T01:57:22.503Z,1.40
2022-10-17T01:57:33.252Z,1.30
2022-10-17T01:57:43.983Z,1.50
2022-10-17T01:57:56.243Z,1.50
2022-10-17T01:58:06.973Z,1.40
2022-10-17T01:58:17.705Z,1.40
2022-10-17T01:58:28.434Z,1.40
2022-10-17T01:58:39.199Z,1.60
2022-10-17T01:58:52.981Z,1.60
2022-10-17T01:59:06.263Z,1.50
2022-10-17T01:59:18.000Z,1.60
2022-10-17T01:59:28.725Z,1.60
2022-10-17T01:59:39.498Z,1.70
2022-10-17T01:59:50.239Z,1.70
2022-10-17T02:00:02.497Z,1.70
2022-10-17T02:00:14.952Z,1.70
2022-10-17T02:00:27.179Z,1.80
2022-10-17T02:00:38.867Z,1.80
2022-10-17T02:00:49.617Z,1.80
2022-10-17T02:01:02.095Z,1.70
2022-10-17T02:01:12.996Z,1.70
2022-10-17T02:01:24.777Z,1.50
2022-10-17T02:01:35.548Z,1.50
2022-10-17T02:01:46.332Z,1.50
2022-10-17T02:01:57.096Z,1.50
2022-10-17T02:02:07.837Z,1.40
2022-10-17T02:02:20.296Z,1.60
2022-10-17T02:02:31.036Z,1.70
2022-10-17T02:02:43.495Z,1.70
2022-10-17T02:02:54.239Z,1.60
2022-10-17T02:03:07.886Z,1.70
2022-10-17T02:03:18.671Z,1.80
2022-10-17T02:03:29.411Z,1.70
2022-10-17T02:03:40.150Z,1.60
2022-10-17T02:03:51.858Z,1.50
2022-10-17T02:04:02.607Z,1.30
2022-10-17T02:04:13.358Z,1.60
2022-10-17T02:04:25.076Z,1.60
2022-10-17T02:04:35.805Z,1.70
2022-10-17T02:04:46.575Z,1.70
2022-10-17T02:04:57.392Z,1.70
2022-10-17T02:05:10.620Z,1.70
2022-10-17T02:05:21.346Z,1.70
2022-10-17T02:05:32.082Z,1.40
2022-10-17T02:05:44.288Z,1.60
2022-10-17T02:05:55.046Z,1.90
2022-10-17T02:06:06.025Z,1.90
2022-10-17T02:06:16.768Z,1.80
2022-10-17T02:06:27.510Z,1.60
2022-10-17T02:06:39.941Z,1.70
2022-10-17T02:06:50.678Z,1.70
2022-10-17T02:07:01.418Z,1.70
2022-10-17T02:07:15.120Z,1.60
2022-10-17T02:07:26.263Z,1.40
2022-10-17T02:07:37.241Z,1.30
2022-10-17T02:07:47.969Z,1.40
2022-10-17T02:07:58.705Z,1.50
2022-10-17T02:08:09.429Z,1.50
2022-10-17T02:08:21.907Z,1.60
2022-10-17T02:08:32.628Z,1.80
2022-10-17T02:08:43.350Z,1.80
2022-10-17T02:08:55.788Z,1.60
2022-10-17T02:09:09.559Z,1.70
2022-10-17T02:09:23.057Z,1.60
2022-10-17T02:09:33.792Z,1.60
2022-10-17T02:09:46.249Z,1.60
2022-10-17T02:09:58.698Z,1.80
2022-10-17T02:10:09.432Z,1.70
2022-10-17T02:10:22.159Z,1.60
2022-10-17T02:10:34.349Z,1.40
2022-10-17T02:10:45.092Z,1.20
2022-10-17T02:10:57.514Z,1.30
2022-10-17T02:11:08.256Z,1.40
2022-10-17T02:11:19.000Z,1.60
2022-10-17T02:11:29.731Z,1.50
2022-10-17T02:11:40.481Z,1.60
2022-10-17T02:11:51.212Z,1.50
2022-10-17T02:12:03.659Z,1.50
2022-10-17T02:12:15.391Z,1.50
2022-10-17T02:12:26.132Z,1.70
2022-10-17T02:12:39.081Z,1.60
2022-10-17T02:12:49.822Z,1.70
2022-10-17T02:13:01.511Z,1.80
2022-10-17T02:13:13.732Z,1.80
2022-10-17T02:13:26.874Z,1.60
2022-10-17T02:13:40.071Z,1.40
2022-10-17T02:13:50.800Z,1.50
2022-10-17T02:14:01.657Z,1.60
2022-10-17T02:14:14.154Z,1.70
2022-10-17T02:14:24.871Z,1.70
2022-10-17T02:14:35.646Z,1.50
2022-10-17T02:14:46.372Z,1.50
2022-10-17T02:14:57.114Z,1.50
2022-10-17T02:15:07.848Z,1.50
2022-10-17T02:15:18.582Z,1.40
2022-10-17T02:15:30.301Z,1.50
2022-10-17T02:15:41.026Z,1.60
2022-10-17T02:15:51.760Z,1.70
2022-10-17T02:16:03.453Z,1.70
2022-10-17T02:16:14.269Z,1.60
2022-10-17T02:16:25.054Z,1.60
2022-10-17T02:16:35.778Z,1.70
2022-10-17T02:16:46.523Z,1.60
2022-10-17T02:16:58.216Z,1.70
2022-10-17T02:17:09.004Z,1.70
2022-10-17T02:17:19.752Z,1.50
2022-10-17T02:17:32.231Z,1.40
2022-10-17T02:17:42.996Z,1.50
2022-10-17T02:17:53.730Z,1.40
2022-10-17T02:18:04.492Z,1.70
2022-10-17T02:18:15.235Z,1.60
2022-10-17T02:18:25.962Z,1.60
2022-10-17T02:18:39.175Z,1.40
2022-10-17T02:18:49.956Z,1.40
2022-10-17T02:19:00.678Z,1.40
2022-10-17T02:19:11.517Z,1.70
2022-10-17T02:19:24.780Z,1.60
2022-10-17T02:19:38.024Z,1.40
2022-10-17T02:19:51.247Z,1.60
2022-10-17T02:20:02.003Z,1.70
2022-10-17T02:20:12.725Z,1.70
2022-10-17T02:20:25.155Z,1.60
2022-10-17T02:20:37.646Z,1.60
2022-10-17T02:20:48.347Z,1.70
2022-10-17T02:21:01.089Z,1.60
2022-10-17T02:21:12.824Z,1.80
2022-10-17T02:21:26.107Z,1.60
2022-10-17T02:21:36.815Z,1.50
2022-10-17T02:21:47.547Z,1.50
2022-10-17T02:21:58.319Z,1.60
2022-10-17T02:22:09.046Z,1.60
2022-10-17T02:22:20.798Z,1.90
2022-10-17T02:22:33.025Z,1.70
2022-10-17T02:22:43.756Z,1.60
2022-10-17T02:22:57.500Z,1.50
2022-10-17T02:23:09.988Z,1.70
2022-10-17T02:23:22.167Z,1.70
2022-10-17T02:23:34.402Z,1.60
2022-10-17T02:23:45.147Z,1.70
2022-10-17T02:23:57.628Z,1.40
2022-10-17T02:24:08.336Z,1.40
2022-10-17T02:24:19.097Z,1.60
2022-10-17T02:24:29.827Z,1.60
2022-10-17T02:24:40.588Z,1.70
2022-10-17T02:24:51.336Z,1.70
2022-10-17T02:25:02.077Z,1.70
2022-10-17T02:25:12.808Z,1.70
2022-10-17T02:25:23.569Z,1.50
2022-10-17T02:25:34.300Z,1.60
2022-10-17T02:25:45.038Z,1.60
2022-10-17T02:25:55.768Z,1.70
2022-10-17T02:26:06.497Z,1.60
2022-10-17T02:26:18.927Z,1.50
2022-10-17T02:26:31.368Z,1.50
2022-10-17T02:26:44.111Z,1.50
2022-10-17T02:26:54.847Z,1.60
2022-10-17T02:27:05.606Z,1.50
2022-10-17T02:27:16.349Z,1.40
2022-10-17T02:27:27.332Z,1.40
2022-10-17T02:27:39.149Z,1.40
2022-10-17T02:27:51.587Z,1.40
2022-10-17T02:28:02.327Z,1.40
2022-10-17T02:28:13.067Z,1.80
2022-10-17T02:28:23.854Z,1.80
2022-10-17T02:28:34.631Z,1.70
2022-10-17T02:28:45.420Z,1.40
2022-10-17T02:28:57.901Z,1.60
2022-10-17T02:29:08.663Z,1.50
2022-10-17T02:29:19.419Z,1.50
2022-10-17T02:29:30.149Z,1.50
2022-10-17T02:29:41.860Z,1.50
2022-10-17T02:29:55.134Z,1.50
2022-10-17T02:30:08.099Z,1.50
2022-10-17T02:30:20.561Z,1.30
2022-10-17T02:30:31.297Z,1.70
2022-10-17T02:30:44.742Z,1.50
2022-10-17T02:30:58.430Z,1.40
2022-10-17T02:31:09.164Z,1.40
2022-10-17T02:31:22.390Z,1.50
2022-10-17T02:31:34.862Z,1.50
2022-10-17T02:31:47.300Z,1.60
2022-10-17T02:32:00.240Z,1.70
2022-10-17T02:32:11.024Z,1.40